Holbrook, Arizona
Current Conditions -  °F | °C
As of 6:56 AM on Sunday 25 Jan 2015 (Local Time) from KINW Reporting Station
Clear Clear  
Wind Chill: 22°   Ceiling: Unl
Heat Index: 22°   Visibility: 10mi
Dew Point: 18°   Wind: 0mph
Humidity: 85%   Direction: NA
Pressure: 30.34"   Gusts: NA
Location:  34.9°N, 110.16°W
Report Text: KINW 251356Z AUTO 00000KT 10SM CLR M06/M08 A3034 RMK AO2 SLP301 T10561078
Loading
Personal Weather Stations






























Interactive Weather Map New forecast layout! Learn more

10-Day Weather Forecast

Advertisements
Track Severe Weather on mobile